Due to severe server failure at the provider, not all demo sites are operational. Will take some days to rebuilt everything.

Demonstration site - Click on the  for more information

This is an optional block. Switch it on/off in your settings-file: $SITE['bannerTop'] = false; or $SITE['bannerBottom'] = false;

You can display ads, any other important text or photo’s using text / html or PHP code.

You can place one or more at the top and or bottom and it can all be different for content / size .



Visit our other weather sites:

Template documentation
and downloads

And another site



Nearby METAR Reports

   
EBAW - Antwerp
Updated: 03-04-2020 09:20
Mostly Cloudy  
Mostly Cloudy  
   Wind: West 13 km/h
Wind: West 13 km/h
Temperature: 8°C
Wind Chill: 6°C
Dew Point: 3°C
Humidity: 71%
Barometer: 1015 hPa
Clouds: Mostly Cloudy
Visibility: More than 10 km
Cloud details: Few Clouds 2300 ft,
Mostly Cloudy 4500 ft
EBAW 030720Z 27007KT 9999 FEW023 BKN045 08/03 Q1015 NOSIG
EBLG - Liège
Updated: 03-04-2020 09:20
Clear  
Clear  
   Wind: WSW 16.7 km/h
Wind: WSW 16.7 km/h
Temperature: 7°C
Wind Chill: 4°C
Dew Point: 4°C
Humidity: 81%
Barometer: 1015 hPa
Visibility: More than 10 km
Cloud details: Clear ft
EBLG 030720Z 24009KT CAVOK 07/04 Q1015 NOSIG
EBCV - Mons/Bergen
Updated: 03-04-2020 09:25
Mostly Cloudy  
Mostly Cloudy  
   Wind: WNW 13 km/h
Wind: WNW 13 km/h
Temperature: 7°C
Wind Chill: 4°C
Dew Point: 3°C
Humidity: 76%
Barometer: 1017 hPa
Clouds: Mostly Cloudy
Visibility: More than 10 km
Cloud details: Mostly Cloudy 5700 ft
EBCV 030725Z AUTO 29007KT 9999 BKN057/// 07/03 Q1017 BLU
EHBK - Maastricht
Updated: 03-04-2020 09:25
Clear  
Clear  
   Wind: WSW 13 km/h
Wind: WSW 13 km/h
Temperature: 8°C
Wind Chill: 6°C
Dew Point: 4°C
Humidity: 76%
Barometer: 1015 hPa
Clouds: Clear
Visibility: More than 10 km
Cloud details: Clear ft
EHBK 030725Z AUTO 25007KT 210V300 9999 NCD 08/04 Q1015 NOSIG
ELLX - Luxemburg
Updated: 03-04-2020 09:20
Clear  
Clear  
   Wind: West 14.8 km/h
Wind: West 14.8 km/h
Temperature: 5°C
Wind Chill: 2°C
Dew Point: 2°C
Humidity: 81%
Barometer: 1015 hPa
Visibility: More than 10 km
Cloud details: Clear ft
ELLX 030720Z 26008KT CAVOK 05/02 Q1015 NOSIG
EBOS - Oostende
Updated: 03-04-2020 09:20
Few Clouds  
Few Clouds  
   Wind: NW 18.5 km/h
Wind: NW 18.5 km/h
Temperature: 7°C
Wind Chill: 4°C
Dew Point: 3°C
Humidity: 76%
Barometer: 1017 hPa
Clouds: Few Clouds
Visibility: More than 10 km
Cloud details: Few Clouds 1800 ft
EBOS 030720Z 31010KT 9999 FEW018 07/03 Q1017 NOSIG

Script developed by  Saratoga-weather.org Adapted for the template by  Weerstation Leuven

This is an optional block. Switch it on/off in your settings-file: $SITE['bannerTop'] = false; or $SITE['bannerBottom'] = false;

You can display ads, any other important text or photo’s using text / html or PHP code.

You can place one or more at the top and or bottom and it can all be different for content / size .